SVA1245 OERK-OEDM
Flight info
| Callsign | SVA1245 |
|---|---|
| Flight time | 0h 31m |
| Altitude | 20000 |
| Route | DURMA V62 DAW |
| Aircraft | A320/M-SDE3FGHIRWY/LB1 |
Departure
| Time | 2026-05-07 13:15 |
|---|---|
| Airport | King Khalid International Airport (OERK) |
Arrival
| Time | 2026-05-07 13:47 |
|---|---|
| Airport | Dawadmi Domestic Airport (OEDM) |
| Time | Latitude | Longitude | Altitude | Speed | Heading |
|---|---|---|---|---|---|
| 2026-05-07 12:40 | 24.95035 | 46.71283 | 2051 ft | 0 kts | 240° |
| 2026-05-07 12:59 | 24.95037 | 46.71286 | 2051 ft | 2 kts | 240° |
| 2026-05-07 12:59 | 24.95044 | 46.71301 | 2051 ft | 2 kts | 240° |
| 2026-05-07 12:59 | 24.95051 | 46.71315 | 2051 ft | 2 kts | 240° |
| 2026-05-07 13:00 | 24.95059 | 46.71329 | 2051 ft | 2 kts | 240° |
| 2026-05-07 13:00 | 24.95067 | 46.71344 | 2051 ft | 2 kts | 240° |
| 2026-05-07 13:00 | 24.95074 | 46.71357 | 2051 ft | 1 kts | 240° |
| 2026-05-07 13:00 | 24.95076 | 46.71368 | 2051 ft | 1 kts | 295° |
| 2026-05-07 13:01 | 24.95068 | 46.71376 | 2051 ft | 2 kts | 342° |
| 2026-05-07 13:01 | 24.95059 | 46.71380 | 2051 ft | 1 kts | 329° |
| 2026-05-07 13:01 | 24.95058 | 46.71380 | 2051 ft | 0 kts | 328° |
| 2026-05-07 13:06 | 24.95062 | 46.71378 | 2051 ft | 1 kts | 328° |
| 2026-05-07 13:06 | 24.95075 | 46.71369 | 2050 ft | 2 kts | 330° |
| 2026-05-07 13:06 | 24.95097 | 46.71355 | 2051 ft | 4 kts | 330° |
| 2026-05-07 13:07 | 24.95128 | 46.71336 | 2051 ft | 5 kts | 331° |
| 2026-05-07 13:07 | 24.95167 | 46.71312 | 2050 ft | 7 kts | 330° |
| 2026-05-07 13:07 | 24.95214 | 46.71281 | 2050 ft | 8 kts | 330° |
| 2026-05-07 13:07 | 24.95269 | 46.71247 | 2051 ft | 9 kts | 330° |
| 2026-05-07 13:08 | 24.95329 | 46.71210 | 2051 ft | 10 kts | 330° |
| 2026-05-07 13:08 | 24.95393 | 46.71203 | 2051 ft | 9 kts | 36° |
| 2026-05-07 13:08 | 24.95440 | 46.71259 | 2051 ft | 9 kts | 18° |
| 2026-05-07 13:08 | 24.95504 | 46.71237 | 2051 ft | 10 kts | 328° |
| 2026-05-07 13:09 | 24.95568 | 46.71197 | 2051 ft | 10 kts | 330° |
| 2026-05-07 13:09 | 24.95635 | 46.71155 | 2051 ft | 11 kts | 330° |
| 2026-05-07 13:09 | 24.95705 | 46.71111 | 2051 ft | 11 kts | 330° |
| 2026-05-07 13:09 | 24.95779 | 46.71064 | 2051 ft | 12 kts | 330° |
| 2026-05-07 13:10 | 24.95860 | 46.71013 | 2051 ft | 14 kts | 330° |
| 2026-05-07 13:10 | 24.95947 | 46.70958 | 2051 ft | 14 kts | 330° |
| 2026-05-07 13:10 | 24.96034 | 46.70903 | 2051 ft | 14 kts | 330° |
| 2026-05-07 13:10 | 24.96123 | 46.70846 | 2051 ft | 14 kts | 330° |
| 2026-05-07 13:11 | 24.96213 | 46.70790 | 2051 ft | 14 kts | 330° |
| 2026-05-07 13:11 | 24.96302 | 46.70733 | 2051 ft | 14 kts | 330° |
| 2026-05-07 13:11 | 24.96392 | 46.70676 | 2051 ft | 14 kts | 330° |
| 2026-05-07 13:11 | 24.96483 | 46.70619 | 2051 ft | 14 kts | 330° |
| 2026-05-07 13:12 | 24.96572 | 46.70562 | 2051 ft | 15 kts | 330° |
| 2026-05-07 13:12 | 24.96663 | 46.70505 | 2051 ft | 15 kts | 332° |
| 2026-05-07 13:12 | 24.96754 | 46.70449 | 2051 ft | 15 kts | 330° |
| 2026-05-07 13:12 | 24.96844 | 46.70391 | 2051 ft | 15 kts | 330° |
| 2026-05-07 13:13 | 24.96927 | 46.70338 | 2051 ft | 13 kts | 330° |
| 2026-05-07 13:13 | 24.97012 | 46.70318 | 2051 ft | 10 kts | 22° |
| 2026-05-07 13:13 | 24.97054 | 46.70390 | 2051 ft | 11 kts | 64° |
| 2026-05-07 13:13 | 24.97094 | 46.70466 | 2051 ft | 11 kts | 60° |
| 2026-05-07 13:14 | 24.97121 | 46.70541 | 2051 ft | 9 kts | 102° |
| 2026-05-07 13:14 | 24.97072 | 46.70589 | 2051 ft | 10 kts | 150° |
| 2026-05-07 13:14 | 24.96896 | 46.70702 | 2051 ft | 61 kts | 150° |
| 2026-05-07 13:14 | 24.96338 | 46.71055 | 2051 ft | 122 kts | 150° |
| 2026-05-07 13:15 | 24.95453 | 46.71614 | 2070 ft | 169 kts | 148° |
| 2026-05-07 13:15 | 24.94425 | 46.72261 | 2648 ft | 167 kts | 147° |
| 2026-05-07 13:15 | 24.93443 | 46.72953 | 3223 ft | 172 kts | 146° |
| 2026-05-07 13:15 | 24.92417 | 46.73645 | 3812 ft | 177 kts | 153° |
| 2026-05-07 13:16 | 24.91178 | 46.73798 | 4231 ft | 190 kts | 195° |
| 2026-05-07 13:16 | 24.90126 | 46.72943 | 4559 ft | 197 kts | 235° |
| 2026-05-07 13:16 | 24.89481 | 46.71538 | 4808 ft | 209 kts | 246° |
| 2026-05-07 13:16 | 24.88905 | 46.70014 | 5051 ft | 221 kts | 246° |
| 2026-05-07 13:17 | 24.88273 | 46.68418 | 5295 ft | 234 kts | 245° |
| 2026-05-07 13:17 | 24.87841 | 46.67383 | 5450 ft | 242 kts | 244° |
| 2026-05-07 13:17 | 24.87081 | 46.65640 | 5597 ft | 261 kts | 243° |
| 2026-05-07 13:17 | 24.86263 | 46.63826 | 6057 ft | 267 kts | 243° |
| 2026-05-07 13:18 | 24.85426 | 46.61999 | 6646 ft | 269 kts | 243° |
| 2026-05-07 13:18 | 24.84576 | 46.60162 | 7243 ft | 270 kts | 242° |
| 2026-05-07 13:18 | 24.83706 | 46.58293 | 7645 ft | 282 kts | 242° |
| 2026-05-07 13:18 | 24.82791 | 46.56333 | 8016 ft | 295 kts | 243° |
| 2026-05-07 13:19 | 24.81841 | 46.54303 | 8651 ft | 299 kts | 243° |
| 2026-05-07 13:19 | 24.80897 | 46.52286 | 9333 ft | 300 kts | 243° |
| 2026-05-07 13:19 | 24.79930 | 46.50228 | 10001 ft | 303 kts | 243° |
| 2026-05-07 13:19 | 24.78963 | 46.48175 | 10541 ft | 310 kts | 243° |
| 2026-05-07 13:20 | 24.77937 | 46.45997 | 10822 ft | 325 kts | 243° |
| 2026-05-07 13:20 | 24.76882 | 46.43753 | 11092 ft | 340 kts | 243° |
| 2026-05-07 13:20 | 24.75776 | 46.41403 | 11350 ft | 355 kts | 243° |
| 2026-05-07 13:20 | 24.74613 | 46.38928 | 11617 ft | 368 kts | 243° |
| 2026-05-07 13:21 | 24.73426 | 46.36405 | 12081 ft | 374 kts | 243° |
| 2026-05-07 13:21 | 24.72280 | 46.33967 | 12639 ft | 376 kts | 242° |
| 2026-05-07 13:21 | 24.71083 | 46.31412 | 13189 ft | 380 kts | 242° |
| 2026-05-07 13:21 | 24.69874 | 46.28833 | 13718 ft | 383 kts | 242° |
| 2026-05-07 13:22 | 24.68642 | 46.26211 | 14251 ft | 387 kts | 242° |
| 2026-05-07 13:22 | 24.67410 | 46.23596 | 14779 ft | 390 kts | 242° |
| 2026-05-07 13:22 | 24.66159 | 46.20943 | 15306 ft | 393 kts | 242° |
| 2026-05-07 13:22 | 24.64883 | 46.18242 | 15836 ft | 396 kts | 242° |
| 2026-05-07 13:23 | 24.63622 | 46.15575 | 16355 ft | 399 kts | 241° |
| 2026-05-07 13:23 | 24.62334 | 46.12851 | 16879 ft | 402 kts | 241° |
| 2026-05-07 13:23 | 24.61029 | 46.10096 | 17404 ft | 405 kts | 241° |
| 2026-05-07 13:23 | 24.59732 | 46.07358 | 17921 ft | 407 kts | 241° |
| 2026-05-07 13:24 | 24.58422 | 46.04594 | 18437 ft | 410 kts | 240° |
| 2026-05-07 13:24 | 24.57092 | 46.01792 | 18956 ft | 412 kts | 240° |
| 2026-05-07 13:24 | 24.55772 | 45.99010 | 19466 ft | 414 kts | 240° |
| 2026-05-07 13:24 | 24.54423 | 45.96172 | 19841 ft | 416 kts | 240° |
| 2026-05-07 13:25 | 24.53084 | 45.93355 | 19919 ft | 416 kts | 240° |
| 2026-05-07 13:25 | 24.51744 | 45.90541 | 19928 ft | 415 kts | 240° |
| 2026-05-07 13:25 | 24.50409 | 45.87736 | 19932 ft | 415 kts | 240° |
| 2026-05-07 13:25 | 24.49067 | 45.84921 | 19934 ft | 415 kts | 240° |
| 2026-05-07 13:26 | 24.47746 | 45.82149 | 19935 ft | 415 kts | 240° |
| 2026-05-07 13:26 | 24.46480 | 45.79298 | 19930 ft | 417 kts | 246° |
| 2026-05-07 13:26 | 24.45614 | 45.76229 | 19933 ft | 419 kts | 256° |
| 2026-05-07 13:26 | 24.45247 | 45.73055 | 19934 ft | 422 kts | 266° |
| 2026-05-07 13:27 | 24.45206 | 45.69842 | 19936 ft | 422 kts | 268° |
| 2026-05-07 13:27 | 24.45233 | 45.66637 | 19936 ft | 422 kts | 269° |
| 2026-05-07 13:27 | 24.45266 | 45.63389 | 19936 ft | 422 kts | 269° |
| 2026-05-07 13:27 | 24.45292 | 45.60178 | 19935 ft | 422 kts | 269° |
| 2026-05-07 13:28 | 24.45309 | 45.56948 | 19936 ft | 422 kts | 269° |
| 2026-05-07 13:28 | 24.45321 | 45.53742 | 19938 ft | 422 kts | 268° |
| 2026-05-07 13:28 | 24.45329 | 45.50489 | 19943 ft | 421 kts | 268° |
| 2026-05-07 13:28 | 24.45334 | 45.47259 | 19950 ft | 420 kts | 268° |
| 2026-05-07 13:29 | 24.45338 | 45.44082 | 19958 ft | 420 kts | 268° |
| 2026-05-07 13:29 | 24.45341 | 45.40840 | 19967 ft | 419 kts | 268° |
| 2026-05-07 13:29 | 24.45343 | 45.37790 | 19977 ft | 419 kts | 268° |
| 2026-05-07 13:29 | 24.45344 | 45.34521 | 19987 ft | 418 kts | 268° |
| 2026-05-07 13:30 | 24.45344 | 45.31362 | 19996 ft | 418 kts | 268° |
| 2026-05-07 13:30 | 24.45344 | 45.28147 | 20003 ft | 418 kts | 268° |
| 2026-05-07 13:30 | 24.45343 | 45.24962 | 19822 ft | 417 kts | 268° |
| 2026-05-07 13:30 | 24.45341 | 45.21778 | 19572 ft | 415 kts | 268° |
| 2026-05-07 13:31 | 24.45338 | 45.18624 | 19322 ft | 414 kts | 268° |
| 2026-05-07 13:31 | 24.45334 | 45.15459 | 19070 ft | 412 kts | 268° |
| 2026-05-07 13:31 | 24.45330 | 45.12260 | 18816 ft | 411 kts | 268° |
| 2026-05-07 13:31 | 24.45326 | 45.09079 | 18561 ft | 409 kts | 268° |
| 2026-05-07 13:32 | 24.45322 | 45.05964 | 18301 ft | 408 kts | 268° |
| 2026-05-07 13:32 | 24.45317 | 45.02868 | 18061 ft | 405 kts | 268° |
| 2026-05-07 13:32 | 24.45313 | 44.99842 | 18020 ft | 389 kts | 268° |
| 2026-05-07 13:32 | 24.45309 | 44.96933 | 17968 ft | 378 kts | 268° |
| 2026-05-07 13:33 | 24.45303 | 44.93982 | 17621 ft | 392 kts | 268° |
| 2026-05-07 13:33 | 24.45295 | 44.90966 | 17202 ft | 394 kts | 268° |
| 2026-05-07 13:33 | 24.45287 | 44.87968 | 16770 ft | 392 kts | 267° |
| 2026-05-07 13:33 | 24.45279 | 44.84976 | 16324 ft | 390 kts | 268° |
| 2026-05-07 13:34 | 24.45269 | 44.82021 | 15840 ft | 388 kts | 268° |
| 2026-05-07 13:34 | 24.45250 | 44.76240 | 14938 ft | 371 kts | 268° |
| 2026-05-07 13:34 | 24.45241 | 44.73453 | 14460 ft | 361 kts | 268° |
| 2026-05-07 13:35 | 24.45231 | 44.70733 | 13901 ft | 354 kts | 268° |
| 2026-05-07 13:35 | 24.45220 | 44.68048 | 13343 ft | 349 kts | 268° |
| 2026-05-07 13:35 | 24.45208 | 44.65391 | 13029 ft | 350 kts | 268° |
| 2026-05-07 13:35 | 24.45197 | 44.62736 | 12673 ft | 349 kts | 269° |
| 2026-05-07 13:36 | 24.45185 | 44.60050 | 12276 ft | 347 kts | 269° |
| 2026-05-07 13:36 | 24.45174 | 44.57430 | 11874 ft | 344 kts | 269° |
| 2026-05-07 13:36 | 24.45163 | 44.54830 | 11473 ft | 342 kts | 269° |
| 2026-05-07 13:36 | 24.45152 | 44.52234 | 11077 ft | 339 kts | 268° |
| 2026-05-07 13:37 | 24.45140 | 44.49635 | 10684 ft | 336 kts | 268° |
| 2026-05-07 13:37 | 24.45126 | 44.47065 | 10298 ft | 333 kts | 267° |
| 2026-05-07 13:37 | 24.44828 | 44.44797 | 10086 ft | 320 kts | 248° |
| 2026-05-07 13:37 | 24.43773 | 44.42781 | 10032 ft | 300 kts | 226° |
| 2026-05-07 13:38 | 24.42170 | 44.41381 | 9892 ft | 287 kts | 205° |
| 2026-05-07 13:38 | 24.40317 | 44.40682 | 9515 ft | 284 kts | 191° |
| 2026-05-07 13:38 | 24.38350 | 44.40204 | 9155 ft | 283 kts | 191° |
| 2026-05-07 13:38 | 24.36404 | 44.39629 | 8808 ft | 283 kts | 195° |
| 2026-05-07 13:39 | 24.34553 | 44.38911 | 8479 ft | 282 kts | 200° |
| 2026-05-07 13:39 | 24.32782 | 44.38045 | 8160 ft | 282 kts | 205° |
| 2026-05-07 13:39 | 24.31061 | 44.37017 | 7856 ft | 280 kts | 209° |
| 2026-05-07 13:39 | 24.29455 | 44.35876 | 7569 ft | 272 kts | 213° |
| 2026-05-07 13:40 | 24.27983 | 44.34653 | 7272 ft | 260 kts | 218° |
| 2026-05-07 13:40 | 24.26655 | 44.33369 | 6987 ft | 249 kts | 222° |
| 2026-05-07 13:40 | 24.25457 | 44.32045 | 6719 ft | 238 kts | 226° |
| 2026-05-07 13:40 | 24.24393 | 44.30716 | 6466 ft | 228 kts | 230° |
| 2026-05-07 13:41 | 24.23604 | 44.29226 | 6192 ft | 219 kts | 254° |
| 2026-05-07 13:41 | 24.23420 | 44.27625 | 5954 ft | 211 kts | 279° |
| 2026-05-07 13:41 | 24.23830 | 44.26106 | 5786 ft | 206 kts | 304° |
| 2026-05-07 13:41 | 24.24731 | 44.24914 | 5768 ft | 202 kts | 327° |
| 2026-05-07 13:42 | 24.25902 | 44.24084 | 5744 ft | 200 kts | 334° |
| 2026-05-07 13:42 | 24.27105 | 44.23342 | 5640 ft | 196 kts | 335° |
| 2026-05-07 13:42 | 24.28297 | 44.22609 | 5497 ft | 195 kts | 334° |
| 2026-05-07 13:42 | 24.29488 | 44.21864 | 5510 ft | 197 kts | 334° |
| 2026-05-07 13:43 | 24.30669 | 44.21114 | 5472 ft | 198 kts | 334° |
| 2026-05-07 13:43 | 24.31852 | 44.20355 | 5462 ft | 193 kts | 334° |
| 2026-05-07 13:43 | 24.32963 | 44.19635 | 5334 ft | 176 kts | 334° |
| 2026-05-07 13:43 | 24.33949 | 44.18992 | 5188 ft | 155 kts | 334° |
| 2026-05-07 13:44 | 24.34848 | 44.18410 | 4890 ft | 146 kts | 335° |
| 2026-05-07 13:44 | 24.35726 | 44.17846 | 4711 ft | 145 kts | 335° |
| 2026-05-07 13:44 | 24.36589 | 44.17294 | 4520 ft | 144 kts | 335° |
| 2026-05-07 13:44 | 24.37460 | 44.16747 | 4330 ft | 143 kts | 336° |
| 2026-05-07 13:45 | 24.38318 | 44.16210 | 4141 ft | 142 kts | 335° |
| 2026-05-07 13:45 | 24.39164 | 44.15680 | 3955 ft | 141 kts | 335° |
| 2026-05-07 13:45 | 24.40013 | 44.15147 | 3768 ft | 140 kts | 335° |
| 2026-05-07 13:45 | 24.40837 | 44.14584 | 3580 ft | 141 kts | 324° |
| 2026-05-07 13:46 | 24.41576 | 44.13882 | 3456 ft | 137 kts | 338° |
| 2026-05-07 13:46 | 24.42451 | 44.13467 | 3378 ft | 136 kts | 339° |
| 2026-05-07 13:46 | 24.43304 | 44.13008 | 3177 ft | 135 kts | 340° |
| 2026-05-07 13:46 | 24.44137 | 44.12573 | 3035 ft | 131 kts | 338° |
| 2026-05-07 13:47 | 24.44831 | 44.12201 | 3028 ft | 85 kts | 334° |
| 2026-05-07 13:47 | 24.45209 | 44.11998 | 3024 ft | 42 kts | 333° |
| 2026-05-07 13:47 | 24.45465 | 44.11860 | 3020 ft | 38 kts | 334° |
| 2026-05-07 13:47 | 24.45696 | 44.11737 | 3019 ft | 35 kts | 333° |
| 2026-05-07 13:48 | 24.45911 | 44.11620 | 3017 ft | 32 kts | 334° |
| 2026-05-07 13:48 | 24.46104 | 44.11516 | 3017 ft | 25 kts | 335° |
| 2026-05-07 13:48 | 24.46200 | 44.11538 | 3017 ft | 12 kts | 356° |
| 2026-05-07 13:48 | 24.46216 | 44.11465 | 3016 ft | 12 kts | 224° |
| 2026-05-07 13:49 | 24.46145 | 44.11491 | 3017 ft | 11 kts | 142° |
| 2026-05-07 13:49 | 24.46074 | 44.11534 | 3017 ft | 11 kts | 154° |
| 2026-05-07 13:49 | 24.45995 | 44.11574 | 3017 ft | 13 kts | 155° |
| 2026-05-07 13:49 | 24.45903 | 44.11624 | 3017 ft | 16 kts | 153° |
| 2026-05-07 13:50 | 24.45795 | 44.11683 | 3018 ft | 18 kts | 153° |
| 2026-05-07 13:50 | 24.45677 | 44.11747 | 3019 ft | 19 kts | 154° |
| 2026-05-07 13:50 | 24.45548 | 44.11816 | 3020 ft | 21 kts | 154° |
| 2026-05-07 13:50 | 24.45412 | 44.11888 | 3021 ft | 22 kts | 153° |
| 2026-05-07 13:51 | 24.45267 | 44.11967 | 3023 ft | 23 kts | 155° |
| 2026-05-07 13:51 | 24.45119 | 44.12046 | 3025 ft | 24 kts | 154° |
| 2026-05-07 13:51 | 24.44965 | 44.12129 | 3026 ft | 25 kts | 153° |
| 2026-05-07 13:51 | 24.44806 | 44.12217 | 3028 ft | 25 kts | 154° |
| 2026-05-07 13:52 | 24.44640 | 44.12305 | 3030 ft | 26 kts | 154° |
| 2026-05-07 13:52 | 24.44479 | 44.12390 | 3030 ft | 23 kts | 154° |
| 2026-05-07 13:52 | 24.44383 | 44.12458 | 3032 ft | 10 kts | 117° |
| 2026-05-07 13:52 | 24.44393 | 44.12527 | 3032 ft | 10 kts | 61° |
| 2026-05-07 13:53 | 24.44423 | 44.12590 | 3034 ft | 8 kts | 63° |
| 2026-05-07 13:53 | 24.44447 | 44.12644 | 3036 ft | 6 kts | 60° |
| 2026-05-07 13:53 | 24.44480 | 44.12674 | 3037 ft | 5 kts | 46° |
| 2026-05-07 13:53 | 24.44498 | 44.12707 | 3037 ft | 4 kts | 62° |
| 2026-05-07 13:54 | 24.44512 | 44.12743 | 3038 ft | 3 kts | 95° |
| 2026-05-07 13:54 | 24.44505 | 44.12758 | 3039 ft | 0 kts | 147° |